Time;durP1;ratioP1;P1;durP2;ratioP2;P2;SDS_P1;SDS_P2;PMS_P1;PMS_P2;Temp;Humidity;BMP_temperature;BMP_pressure;BME280_temperature;BME280_humidity;BME280_pressure;Samples;Min_cycle;Max_cycle;Signal;HPM_P1;HPM_P2
2023/01/22 00:01:11;;;;;;;0.10;0.10;;;1.50;99.90;;;;;;5053996;28;20461;-71
2023/01/22 00:03:38;;;;;;;0.73;0.73;;;1.50;99.90;;;;;;5055444;28;20075;-71
2023/01/22 00:06:04;;;;;;;2.75;2.55;;;1.50;99.90;;;;;;5055313;28;20021;-71
2023/01/22 00:08:30;;;;;;;4.28;2.75;;;1.50;99.90;;;;;;5054182;28;20068;-72
2023/01/22 00:10:56;;;;;;;13.98;5.90;;;1.40;99.90;;;;;;5055269;28;20021;-72
2023/01/22 00:13:24;;;;;;;11.55;5.90;;;1.30;99.90;;;;;;5055223;28;20028;-72
2023/01/22 00:15:50;;;;;;;12.27;5.97;;;1.00;99.90;;;;;;5054977;28;20067;-71
2023/01/22 00:18:16;;;;;;;13.95;6.50;;;1.10;99.90;;;;;;5053663;28;20462;-71
2023/01/22 00:20:49;;;;;;;1.75;1.65;;;1.10;99.90;;;;;;5055203;28;20088;-71
2023/01/22 00:23:15;;;;;;;1.63;0.93;;;1.10;99.90;;;;;;5055078;28;20025;-71
2023/01/22 00:25:42;;;;;;;3.95;3.53;;;1.10;99.90;;;;;;5053755;28;20354;-71
2023/01/22 00:28:08;;;;;;;0.85;0.75;;;1.10;99.90;;;;;;5053773;28;20469;-72
2023/01/22 00:30:33;;;;;;;1.88;1.77;;;1.00;99.90;;;;;;5054664;28;20100;-72
2023/01/22 00:32:59;;;;;;;7.13;3.03;;;1.20;99.90;;;;;;5054768;28;20021;-71
2023/01/22 00:35:25;;;;;;;7.72;2.35;;;1.30;99.90;;;;;;5053773;28;20028;-72
2023/01/22 00:37:51;;;;;;;5.05;2.53;;;1.40;99.90;;;;;;5053297;28;20033;-72
2023/01/22 00:40:17;;;;;;;6.75;2.30;;;1.50;99.90;;;;;;5054796;28;20354;-71
2023/01/22 00:42:43;;;;;;;8.98;4.25;;;1.40;99.90;;;;;;5053169;28;20039;-71
2023/01/22 00:45:12;;;;;;;0.65;0.65;;;1.40;99.90;;;;;;5053425;28;20032;-72
2023/01/22 00:47:38;;;;;;;0.30;0.30;;;1.50;99.90;;;;;;5052910;28;20116;-72
2023/01/22 00:50:05;;;;;;;9.70;2.20;;;1.40;99.90;;;;;;5054647;28;20577;-72
2023/01/22 00:52:31;;;;;;;9.93;3.30;;;1.60;99.90;;;;;;5053265;28;20060;-71
2023/01/22 00:54:57;;;;;;;3.42;2.55;;;1.70;99.90;;;;;;5054072;28;20110;-71
2023/01/22 00:57:22;;;;;;;7.50;3.05;;;1.70;99.90;;;;;;5053350;28;20560;-72
2023/01/22 00:59:48;;;;;;;2.92;1.55;;;1.60;99.90;;;;;;5052833;28;20145;-71
2023/01/22 01:02:15;;;;;;;3.20;2.28;;;1.60;99.90;;;;;;5036438;28;20190;-71
2023/01/22 01:04:41;;;;;;;3.10;2.03;;;1.50;99.90;;;;;;5054613;28;20060;-72
2023/01/22 01:07:07;;;;;;;0.10;0.10;;;1.70;99.90;;;;;;5054185;28;20422;-71
2023/01/22 01:09:32;;;;;;;3.85;2.97;;;1.80;99.90;;;;;;5052956;28;20095;-72
2023/01/22 01:11:59;;;;;;;7.25;2.03;;;1.60;99.90;;;;;;5054032;28;20029;-72
2023/01/22 01:14:25;;;;;;;6.32;1.55;;;1.50;99.90;;;;;;5053761;28;20022;-71
2023/01/22 01:16:51;;;;;;;8.85;4.43;;;1.30;99.90;;;;;;5052722;28;20083;-71
2023/01/22 01:19:19;;;;;;;5.38;2.30;;;1.40;99.90;;;;;;5053994;28;20478;-71
2023/01/22 01:21:49;;;;;;;9.52;3.83;;;1.40;99.90;;;;;;5053985;28;20017;-72
2023/01/22 01:24:15;;;;;;;7.80;2.75;;;1.20;99.90;;;;;;5052624;28;20362;-71
2023/01/22 01:26:42;;;;;;;1.52;1.23;;;1.30;99.90;;;;;;5054081;28;20025;-72
2023/01/22 01:29:10;;;;;;;3.58;2.38;;;1.30;99.90;;;;;;5053404;28;20384;-71
2023/01/22 01:31:37;;;;;;;3.92;1.80;;;1.40;99.90;;;;;;5053970;28;20029;-72
2023/01/22 01:34:03;;;;;;;0.88;0.88;;;1.40;99.90;;;;;;5052312;28;20311;-72
2023/01/22 01:36:29;;;;;;;0.25;0.25;;;1.40;99.90;;;;;;5053562;28;20020;-72
2023/01/22 01:38:55;;;;;;;3.65;1.98;;;1.20;99.90;;;;;;5053458;28;20029;-71
2023/01/22 01:41:25;;;;;;;3.80;2.20;;;1.10;99.90;;;;;;5053804;28;20354;-71
2023/01/22 01:44:14;;;;;;;0.10;0.10;;;1.20;99.90;;;;;;5053219;28;20040;-71
2023/01/22 01:46:50;;;;;;;10.15;5.43;;;1.30;99.90;;;;;;5052029;28;20499;-72
2023/01/22 01:49:32;;;;;;;1.65;1.10;;;1.20;99.90;;;;;;5053544;28;20124;-71
2023/01/22 01:52:08;;;;;;;7.53;3.33;;;1.20;99.90;;;;;;5035534;28;20032;-71
2023/01/22 01:54:35;;;;;;;3.92;3.03;;;1.10;99.90;;;;;;5053196;28;20440;-72
2023/01/22 01:57:08;;;;;;;6.20;4.78;;;1.10;99.90;;;;;;5051801;28;20028;-71
2023/01/22 01:59:34;;;;;;;8.13;3.70;;;1.30;99.90;;;;;;5051202;28;20044;-71
2023/01/22 02:02:01;;;;;;;8.45;5.28;;;1.30;99.90;;;;;;5053220;28;20027;-71
2023/01/22 02:04:27;;;;;;;2.60;2.40;;;1.10;99.90;;;;;;5053112;28;20095;-71
2023/01/22 02:06:54;;;;;;;1.90;1.75;;;0.90;99.90;;;;;;5053160;28;20063;-71
2023/01/22 02:09:20;;;;;;;5.35;1.92;;;0.90;99.90;;;;;;5051720;28;20462;-71
2023/01/22 02:11:49;;;;;;;7.43;3.03;;;1.00;99.90;;;;;;5051668;28;20033;-71
2023/01/22 02:14:21;;;;;;;8.05;4.47;;;1.10;99.90;;;;;;5052766;28;20488;-71
2023/01/22 02:16:47;;;;;;;4.93;2.33;;;1.10;99.90;;;;;;5052643;28;20029;-71
2023/01/22 02:19:13;;;;;;;4.72;4.32;;;1.00;99.90;;;;;;5052935;28;20374;-71
2023/01/22 02:21:42;;;;;;;3.55;2.47;;;0.90;99.90;;;;;;5052887;28;20033;-71
2023/01/22 02:24:13;;;;;;;5.25;3.28;;;0.80;99.90;;;;;;5051468;28;20104;-71
2023/01/22 02:26:41;;;;;;;6.75;3.60;;;0.80;99.90;;;;;;5052783;28;20036;-71
2023/01/22 02:29:10;;;;;;;2.20;2.10;;;0.90;99.90;;;;;;5051355;28;20104;-71
2023/01/22 02:31:37;;;;;;;2.30;0.80;;;1.00;99.90;;;;;;5051821;28;20040;-71
2023/01/22 02:34:05;;;;;;;9.55;4.65;;;0.90;99.90;;;;;;5051468;28;20053;-71
2023/01/22 02:36:33;;;;;;;11.35;6.10;;;0.90;99.90;;;;;;5052286;28;20029;-71
2023/01/22 02:38:58;;;;;;;6.22;2.33;;;1.00;99.90;;;;;;5051453;28;20132;-71
2023/01/22 02:41:25;;;;;;;17.45;5.88;;;0.90;99.90;;;;;;5051013;28;20049;-71
2023/01/22 02:43:51;;;;;;;2.17;1.92;;;1.00;99.90;;;;;;5052760;28;20043;-71
2023/01/22 02:46:19;;;;;;;6.50;3.53;;;1.00;99.90;;;;;;5032814;28;20079;-72
2023/01/22 02:48:45;;;;;;;12.18;4.07;;;1.20;99.90;;;;;;5052782;28;20385;-71
2023/01/22 02:51:11;;;;;;;3.05;2.78;;;1.10;99.90;;;;;;5050972;28;20120;-71
2023/01/22 02:53:37;;;;;;;7.53;3.83;;;1.20;99.90;;;;;;5051009;28;20021;-71
2023/01/22 02:56:08;;;;;;;0.57;0.57;;;1.20;99.90;;;;;;5050890;28;20025;-71
2023/01/22 02:58:34;;;;;;;6.45;5.53;;;1.40;99.90;;;;;;5051176;28;20033;-71
2023/01/22 03:01:19;;;;;;;6.32;5.68;;;1.50;99.90;;;;;;5051043;28;20059;-71
2023/01/22 03:03:50;;;;;;;2.80;2.60;;;1.40;99.90;;;;;;5051262;28;20052;-71
2023/01/22 03:06:20;;;;;;;2.05;1.48;;;1.70;99.90;;;;;;5050746;28;20031;-71
2023/01/22 03:08:58;;;;;;;2.28;0.88;;;1.60;99.90;;;;;;5051293;28;20036;-71
2023/01/22 03:11:26;;;;;;;5.50;2.55;;;1.70;99.90;;;;;;5053645;28;20385;-71
2023/01/22 03:22:15;;;;;;;2.30;2.17;;;1.80;99.90;;;;;;5043079;28;20049;-71
2023/01/22 03:24:51;;;;;;;3.88;2.88;;;1.80;99.90;;;;;;5054446;28;20151;-72
2023/01/22 03:27:23;;;;;;;2.05;1.85;;;1.80;99.90;;;;;;5055070;28;20084;-71
2023/01/22 03:29:48;;;;;;;0.85;0.85;;;1.70;99.90;;;;;;5055022;28;20029;-71
2023/01/22 03:32:16;;;;;;;0.73;0.73;;;1.70;99.90;;;;;;5037829;28;20036;-71
2023/01/22 03:34:41;;;;;;;0.10;0.10;;;1.70;99.90;;;;;;5055962;28;20064;-71
2023/01/22 03:37:11;;;;;;;3.53;2.58;;;1.70;99.90;;;;;;5054518;28;20056;-71
2023/01/22 03:39:39;;;;;;;7.67;3.00;;;2.00;99.90;;;;;;5055750;28;20045;-71
2023/01/22 03:42:06;;;;;;;4.40;2.05;;;2.00;99.90;;;;;;5056393;28;20538;-71
2023/01/22 03:44:33;;;;;;;5.15;2.88;;;2.10;99.90;;;;;;5056489;28;20034;-71
2023/01/22 03:47:00;;;;;;;3.95;2.65;;;2.20;99.90;;;;;;5056221;28;20025;-72
2023/01/22 03:49:26;;;;;;;3.00;1.52;;;2.10;99.90;;;;;;5056605;28;20029;-71
2023/01/22 03:51:53;;;;;;;2.33;1.55;;;2.00;99.90;;;;;;5056782;28;20021;-71
2023/01/22 03:54:18;;;;;;;10.43;5.53;;;2.00;99.90;;;;;;5039373;28;20032;-72
2023/01/22 03:56:44;;;;;;;0.57;0.57;;;2.00;99.90;;;;;;5055992;28;20021;-71
2023/01/22 03:59:20;;;;;;;0.50;0.50;;;2.00;99.90;;;;;;5056070;28;20497;-71
2023/01/22 04:01:46;;;;;;;0.20;0.20;;;2.10;99.90;;;;;;5055908;28;20162;-71
2023/01/22 04:04:12;;;;;;;3.45;2.97;;;2.20;99.90;;;;;;5057490;28;20060;-72
2023/01/22 04:06:40;;;;;;;0.52;0.40;;;2.10;99.90;;;;;;5039964;28;20032;-72
2023/01/22 04:09:06;;;;;;;9.02;3.25;;;2.00;99.90;;;;;;5056079;28;20127;-72
2023/01/22 04:11:39;;;;;;;2.53;2.10;;;2.00;99.90;;;;;;5055350;28;20047;-71
2023/01/22 04:14:07;;;;;;;7.40;3.83;;;1.90;99.90;;;;;;5054143;28;20029;-71
2023/01/22 04:16:35;;;;;;;3.20;2.28;;;1.90;99.90;;;;;;5054192;28;20430;-71
2023/01/22 04:19:08;;;;;;;0.57;0.45;;;2.00;99.90;;;;;;5038158;28;20036;-70
2023/01/22 04:22:12;;;;;;;0.63;0.63;;;1.90;99.90;;;;;;5062421;28;20535;-71
2023/01/22 04:24:38;;;;;;;9.05;4.38;;;2.00;99.90;;;;;;5073077;28;20127;-70
2023/01/22 04:27:04;;;;;;;0.60;0.60;;;1.90;99.90;;;;;;5052629;28;20036;-71
2023/01/22 04:29:30;;;;;;;11.32;3.10;;;1.90;99.90;;;;;;5053830;28;20040;-71
2023/01/22 04:31:57;;;;;;;1.15;1.02;;;1.90;99.90;;;;;;5053691;28;20417;-71
2023/01/22 04:34:41;;;;;;;1.77;1.67;;;1.80;99.90;;;;;;5055214;28;20032;-71
2023/01/22 04:37:18;;;;;;;1.20;1.10;;;2.00;99.90;;;;;;5053157;28;20388;-71
2023/01/22 04:39:45;;;;;;;1.10;1.10;;;1.90;99.90;;;;;;5053560;28;20072;-71
2023/01/22 04:42:11;;;;;;;1.23;1.20;;;1.70;99.90;;;;;;5053498;28;20079;-71
2023/01/22 04:44:36;;;;;;;1.00;1.00;;;1.80;99.90;;;;;;5053617;28;20029;-71
2023/01/22 04:47:06;;;;;;;0.40;0.40;;;1.80;99.90;;;;;;5053259;28;20028;-70
2023/01/22 04:49:32;;;;;;;1.95;0.70;;;1.80;99.90;;;;;;5053572;28;20057;-71
2023/01/22 04:51:58;;;;;;;1.48;1.38;;;1.80;99.90;;;;;;5052785;28;20083;-71
2023/01/22 04:54:25;;;;;;;7.40;2.85;;;1.80;99.90;;;;;;5053366;28;20496;-71
2023/01/22 04:56:51;;;;;;;6.90;1.30;;;1.90;99.90;;;;;;5053261;28;20033;-71
2023/01/22 04:59:17;;;;;;;2.58;1.83;;;1.90;99.90;;;;;;5053079;28;20488;-71
2023/01/22 05:01:43;;;;;;;1.48;0.93;;;2.00;99.90;;;;;;5053340;28;20116;-71
2023/01/22 05:04:10;;;;;;;8.82;3.45;;;2.20;99.90;;;;;;5052958;28;20082;-72
2023/01/22 05:06:36;;;;;;;0.80;0.80;;;2.30;99.90;;;;;;5053085;28;20090;-71
2023/01/22 05:09:02;;;;;;;1.10;1.02;;;2.20;99.90;;;;;;5036436;28;20060;-71
2023/01/22 05:11:34;;;;;;;5.60;2.17;;;2.20;99.90;;;;;;5053194;28;20055;-71
2023/01/22 05:14:01;;;;;;;1.20;1.15;;;2.10;99.90;;;;;;5054378;28;20025;-71
2023/01/22 05:16:27;;;;;;;5.68;1.35;;;2.20;99.90;;;;;;5052970;28;20388;-71
2023/01/22 05:18:53;;;;;;;0.80;0.80;;;2.30;99.90;;;;;;5052955;28;20556;-71
2023/01/22 05:21:19;;;;;;;1.30;0.95;;;2.40;99.90;;;;;;5052499;28;20120;-71
2023/01/22 05:23:46;;;;;;;1.48;1.20;;;2.30;99.90;;;;;;5052736;28;20028;-71
2023/01/22 05:26:12;;;;;;;4.38;2.85;;;2.60;99.90;;;;;;5052716;28;20021;-71
2023/01/22 05:28:49;;;;;;;2.35;1.95;;;2.50;99.90;;;;;;5052748;28;20029;-71
2023/01/22 05:31:21;;;;;;;4.07;1.33;;;2.50;99.90;;;;;;5036984;28;20036;-71
2023/01/22 05:34:05;;;;;;;0.85;0.80;;;2.50;99.90;;;;;;5053360;28;20036;-70
2023/01/22 05:36:31;;;;;;;0.10;0.10;;;2.50;99.90;;;;;;5052340;28;20021;-71
2023/01/22 05:39:03;;;;;;;1.15;1.15;;;2.60;99.90;;;;;;5052504;28;20060;-71
2023/01/22 05:41:29;;;;;;;5.70;3.35;;;2.70;99.90;;;;;;5052323;28;20067;-72
2023/01/22 05:43:55;;;;;;;0.25;0.25;;;2.50;99.90;;;;;;5052364;28;20500;-71
2023/01/22 05:46:26;;;;;;;0.68;0.50;;;2.40;99.90;;;;;;5052212;28;20420;-71
2023/01/22 05:49:23;;;;;;;2.15;1.40;;;2.60;99.90;;;;;;5056828;28;20044;-71
2023/01/22 05:51:53;;;;;;;1.08;1.05;;;2.60;99.90;;;;;;5052116;28;20017;-71
2023/01/22 05:54:19;;;;;;;1.75;1.42;;;2.70;99.90;;;;;;5052030;28;20024;-71
2023/01/22 05:56:46;;;;;;;3.72;2.58;;;2.80;99.90;;;;;;5052388;28;20413;-71
2023/01/22 05:59:12;;;;;;;0.85;0.85;;;2.60;99.90;;;;;;5051910;28;20055;-71
2023/01/22 06:01:42;;;;;;;1.15;1.05;;;2.80;99.90;;;;;;5035792;28;20029;-72
2023/01/22 06:04:08;;;;;;;0.55;0.55;;;2.70;99.90;;;;;;5051320;28;20033;-71
2023/01/22 06:06:34;;;;;;;1.58;1.38;;;2.80;99.90;;;;;;5035440;28;20025;-71
2023/01/22 06:09:00;;;;;;;3.03;1.75;;;2.90;99.90;;;;;;5051909;28;20037;-71
2023/01/22 06:11:31;;;;;;;5.20;2.83;;;2.80;99.90;;;;;;5052132;28;20358;-72
2023/01/22 06:13:57;;;;;;;1.85;1.23;;;2.60;99.90;;;;;;5039132;28;20033;-72
2023/01/22 06:16:23;;;;;;;0.00;0.00;;;2.60;99.90;;;;;;5030460;28;20022;-71
2023/01/22 06:18:51;;;;;;;3.45;2.20;;;2.70;99.90;;;;;;5044007;28;20053;-71
2023/01/22 06:21:17;;;;;;;4.40;2.47;;;2.70;99.90;;;;;;5051693;28;20489;-71
2023/01/22 06:23:44;;;;;;;0.10;0.10;;;2.80;99.90;;;;;;5035322;28;20090;-71
2023/01/22 06:26:10;;;;;;;1.13;0.85;;;2.70;99.90;;;;;;5051105;28;20048;-71
2023/01/22 06:28:36;;;;;;;3.63;2.53;;;2.60;99.90;;;;;;5052344;28;20068;-71
2023/01/22 06:31:06;;;;;;;0.20;0.20;;;2.60;99.90;;;;;;5051517;28;20021;-71
2023/01/22 06:33:36;;;;;;;4.13;1.40;;;2.60;99.90;;;;;;5051448;28;20373;-71
2023/01/22 06:36:04;;;;;;;2.75;1.92;;;2.70;99.90;;;;;;5050704;28;20083;-71
2023/01/22 06:38:30;;;;;;;2.25;1.83;;;2.50;99.90;;;;;;5050266;28;20062;-70
2023/01/22 06:40:59;;;;;;;2.47;2.17;;;2.50;99.90;;;;;;5053541;28;20481;-71
2023/01/22 06:43:27;;;;;;;0.30;0.30;;;2.40;99.90;;;;;;5052359;28;20025;-71
2023/01/22 06:45:54;;;;;;;4.88;3.35;;;2.50;99.90;;;;;;5050872;28;20025;-71
2023/01/22 06:48:34;;;;;;;6.32;0.52;;;2.30;99.90;;;;;;5051107;28;20491;-71
2023/01/22 06:51:00;;;;;;;3.28;1.05;;;2.30;99.90;;;;;;5052522;28;20025;-71
2023/01/22 06:53:26;;;;;;;9.02;4.57;;;2.30;99.90;;;;;;5051144;28;20037;-71
2023/01/22 06:55:52;;;;;;;5.93;2.83;;;2.30;99.90;;;;;;5052388;28;20053;-71
2023/01/22 06:58:17;;;;;;;0.90;0.90;;;2.20;99.90;;;;;;5051127;28;20063;-71
2023/01/22 07:00:43;;;;;;;4.40;2.40;;;2.10;99.90;;;;;;5050907;28;20078;-71
2023/01/22 07:03:10;;;;;;;0.45;0.45;;;2.10;99.90;;;;;;5052196;28;20044;-71
2023/01/22 07:05:36;;;;;;;0.30;0.30;;;2.10;99.90;;;;;;5052385;28;20040;-71
2023/01/22 07:08:02;;;;;;;0.35;0.35;;;2.20;99.90;;;;;;5052379;28;20021;-71
2023/01/22 07:10:28;;;;;;;0.17;0.17;;;2.20;99.90;;;;;;5052418;28;20064;-71
2023/01/22 07:12:54;;;;;;;6.45;1.67;;;2.10;99.90;;;;;;5051110;28;20067;-72
2023/01/22 07:15:20;;;;;;;8.05;1.63;;;2.20;99.90;;;;;;5052007;28;20516;-72
2023/01/22 07:17:53;;;;;;;1.10;0.75;;;2.20;99.90;;;;;;5052220;28;20099;-71
2023/01/22 07:20:21;;;;;;;4.38;3.05;;;2.30;99.90;;;;;;5052173;28;20036;-71
2023/01/22 07:22:47;;;;;;;2.08;1.70;;;2.10;99.90;;;;;;5052156;28;20477;-71
2023/01/22 07:25:13;;;;;;;1.00;0.90;;;2.10;99.90;;;;;;5052274;28;20083;-71
2023/01/22 07:27:38;;;;;;;3.05;2.22;;;2.10;99.90;;;;;;5044627;28;20028;-71
2023/01/22 07:30:05;;;;;;;1.52;1.17;;;2.00;99.90;;;;;;5045615;28;20110;-72
2023/01/22 07:32:31;;;;;;;3.30;0.63;;;2.10;99.90;;;;;;5051220;28;20028;-71
2023/01/22 07:34:57;;;;;;;0.10;0.10;;;2.10;99.90;;;;;;5052784;28;20029;-71
2023/01/22 07:37:23;;;;;;;13.13;2.35;;;2.10;99.90;;;;;;5053591;28;20033;-71
2023/01/22 07:39:48;;;;;;;3.47;2.15;;;2.10;99.90;;;;;;5054445;28;20033;-71
2023/01/22 07:42:14;;;;;;;6.60;1.60;;;2.00;99.90;;;;;;5052823;28;20025;-70
2023/01/22 07:44:40;;;;;;;2.90;1.83;;;2.00;99.90;;;;;;5062267;28;20476;-71
2023/01/22 07:47:07;;;;;;;1.08;0.98;;;2.00;99.90;;;;;;5055404;28;20025;-70
2023/01/22 07:49:33;;;;;;;3.03;2.45;;;1.90;99.90;;;;;;5051803;28;20458;-70
2023/01/22 07:51:59;;;;;;;2.72;0.52;;;1.80;99.90;;;;;;5041360;28;20107;-71
2023/01/22 07:54:24;;;;;;;0.35;0.30;;;1.90;99.90;;;;;;5065228;28;20055;-71
2023/01/22 07:56:51;;;;;;;0.85;0.85;;;2.00;99.90;;;;;;5066629;28;20044;-71
2023/01/22 07:59:17;;;;;;;5.03;1.42;;;2.00;99.90;;;;;;5062003;28;20063;-71
2023/01/22 08:01:43;;;;;;;0.70;0.70;;;2.10;99.90;;;;;;5059410;28;20039;-71
2023/01/22 08:04:08;;;;;;;1.40;1.27;;;2.10;99.90;;;;;;5056796;28;20108;-71
2023/01/22 08:06:34;;;;;;;5.22;2.97;;;2.10;99.90;;;;;;5069903;28;20069;-71
2023/01/22 08:09:00;;;;;;;1.75;0.80;;;1.90;99.90;;;;;;5069456;28;20520;-71
2023/01/22 08:11:26;;;;;;;1.05;0.95;;;2.00;99.90;;;;;;5053525;28;20033;-71
2023/01/22 08:13:53;;;;;;;3.80;1.77;;;1.90;99.90;;;;;;5056651;28;20036;-71
2023/01/22 08:16:20;;;;;;;0.98;0.95;;;2.00;99.90;;;;;;5057998;28;20017;-71
2023/01/22 08:18:46;;;;;;;1.83;1.20;;;2.10;99.90;;;;;;5058270;28;20271;-72
2023/01/22 08:21:11;;;;;;;2.40;2.08;;;2.20;99.90;;;;;;5052699;28;20025;-72
2023/01/22 08:23:37;;;;;;;1.00;0.90;;;2.10;99.90;;;;;;5060173;28;20029;-72
2023/01/22 08:26:03;;;;;;;2.17;1.30;;;2.00;99.90;;;;;;5058000;28;20029;-71
2023/01/22 08:28:30;;;;;;;5.30;3.13;;;1.90;99.90;;;;;;5050988;28;20432;-71
2023/01/22 08:31:01;;;;;;;2.13;1.55;;;1.80;99.90;;;;;;5061741;28;20437;-71
2023/01/22 08:33:28;;;;;;;0.30;0.30;;;1.90;99.90;;;;;;5050352;28;20041;-72
2023/01/22 08:35:53;;;;;;;2.75;1.08;;;1.90;99.90;;;;;;5052989;28;20029;-71
2023/01/22 08:38:19;;;;;;;0.10;0.10;;;2.00;99.90;;;;;;5059365;28;20035;-72
2023/01/22 08:40:49;;;;;;;0.52;0.52;;;2.10;99.90;;;;;;5050844;28;20112;-71
2023/01/22 08:43:15;;;;;;;0.40;0.40;;;2.00;99.90;;;;;;5049655;28;20092;-71
2023/01/22 08:45:41;;;;;;;0.90;0.38;;;1.90;99.90;;;;;;5055435;28;20021;-71
2023/01/22 08:48:07;;;;;;;6.40;3.45;;;2.00;99.90;;;;;;5056838;28;20029;-72
2023/01/22 08:50:33;;;;;;;1.27;0.82;;;2.10;99.90;;;;;;5055011;28;20112;-72
2023/01/22 08:52:59;;;;;;;2.40;2.20;;;2.10;99.90;;;;;;5054007;28;20116;-72
2023/01/22 08:55:26;;;;;;;1.17;0.75;;;2.00;99.90;;;;;;5037176;28;20403;-72
2023/01/22 08:57:56;;;;;;;0.85;0.85;;;1.90;99.90;;;;;;5053780;28;20029;-71
2023/01/22 09:00:23;;;;;;;3.53;1.25;;;2.00;99.90;;;;;;5053142;28;20115;-71
2023/01/22 09:02:49;;;;;;;1.95;1.40;;;2.10;99.90;;;;;;5055038;28;20025;-71
2023/01/22 09:05:15;;;;;;;3.28;2.67;;;2.10;99.90;;;;;;5054862;28;20051;-71
2023/01/22 09:07:41;;;;;;;1.60;1.45;;;2.00;99.90;;;;;;5052777;28;20027;-71
2023/01/22 09:10:11;;;;;;;0.77;0.77;;;1.90;99.90;;;;;;5051090;28;20565;-71
2023/01/22 09:12:37;;;;;;;0.52;0.52;;;1.70;99.90;;;;;;5052926;28;20929;-71
2023/01/22 09:15:04;;;;;;;0.50;0.50;;;1.80;99.90;;;;;;5052095;28;20497;-71
2023/01/22 09:17:29;;;;;;;0.52;0.35;;;1.90;99.90;;;;;;5053052;28;20419;-71
2023/01/22 09:19:56;;;;;;;0.30;0.30;;;2.00;99.90;;;;;;5050154;28;20076;-71
2023/01/22 09:22:21;;;;;;;0.98;0.98;;;2.10;99.90;;;;;;5056416;28;20051;-72
2023/01/22 09:24:47;;;;;;;7.53;1.85;;;2.10;99.90;;;;;;5044474;28;20488;-72
2023/01/22 09:27:13;;;;;;;1.10;0.65;;;2.10;99.90;;;;;;5052935;28;20282;-72
2023/01/22 09:29:39;;;;;;;2.78;2.15;;;2.10;99.90;;;;;;5050893;28;20021;-72
2023/01/22 09:32:04;;;;;;;0.93;0.93;;;2.00;99.90;;;;;;5056152;28;20106;-72
2023/01/22 09:34:30;;;;;;;0.32;0.32;;;2.10;99.90;;;;;;5053539;28;20013;-72
2023/01/22 09:36:56;;;;;;;1.13;1.00;;;2.30;99.90;;;;;;5055243;28;20450;-71
2023/01/22 09:39:22;;;;;;;0.57;0.57;;;2.40;99.90;;;;;;5054368;28;20462;-72
2023/01/22 09:41:52;;;;;;;0.50;0.50;;;2.40;99.90;;;;;;5056336;28;20028;-72
2023/01/22 09:44:37;;;;;;;0.90;0.90;;;2.20;99.90;;;;;;5054900;28;20504;-72
2023/01/22 09:47:24;;;;;;;1.75;1.65;;;2.20;99.90;;;;;;5044526;28;20030;-72
2023/01/22 09:49:49;;;;;;;2.38;0.43;;;2.30;99.90;;;;;;5044362;28;20024;-72
2023/01/22 09:52:15;;;;;;;1.52;1.42;;;2.40;99.90;;;;;;5047002;28;20041;-72
2023/01/22 09:54:42;;;;;;;0.85;0.85;;;2.30;99.90;;;;;;5046485;28;20064;-71
2023/01/22 09:57:12;;;;;;;2.08;1.73;;;2.50;99.90;;;;;;5055781;28;20029;-72
2023/01/22 09:59:51;;;;;;;2.30;1.98;;;2.20;99.90;;;;;;5051674;28;20037;-72
2023/01/22 10:02:41;;;;;;;0.30;0.30;;;2.30;99.90;;;;;;5036048;28;20024;-72
2023/01/22 10:05:25;;;;;;;3.05;2.13;;;2.20;99.90;;;;;;5061963;28;20058;-72
2023/01/22 10:08:01;;;;;;;1.75;1.38;;;2.00;99.90;;;;;;5056450;28;20489;-72
2023/01/22 10:10:27;;;;;;;0.20;0.20;;;2.10;99.90;;;;;;5042261;28;20036;-72
2023/01/22 10:13:05;;;;;;;4.75;1.80;;;2.30;99.90;;;;;;5050217;28;20484;-72
2023/01/22 10:15:32;;;;;;;5.18;1.55;;;2.20;99.90;;;;;;5042781;28;20143;-72
2023/01/22 10:17:58;;;;;;;2.10;1.75;;;2.10;99.90;;;;;;5048083;28;20078;-72
2023/01/22 10:20:25;;;;;;;0.70;0.70;;;2.10;99.90;;;;;;5047779;28;20542;-72
2023/01/22 10:22:58;;;;;;;2.05;1.85;;;2.10;99.90;;;;;;5052352;28;20098;-72
2023/01/22 10:25:24;;;;;;;2.65;0.85;;;2.20;99.90;;;;;;5051975;28;20166;-72
2023/01/22 10:27:58;;;;;;;3.70;1.92;;;2.20;99.90;;;;;;5039445;28;20017;-72
2023/01/22 10:30:25;;;;;;;5.70;1.75;;;2.20;99.90;;;;;;5053844;28;20027;-73
2023/01/22 10:33:05;;;;;;;4.10;3.35;;;2.40;99.90;;;;;;5056140;28;20013;-72
2023/01/22 10:35:40;;;;;;;6.55;1.85;;;2.30;99.90;;;;;;5052753;28;20029;-71
2023/01/22 10:38:20;;;;;;;5.57;2.22;;;2.40;99.90;;;;;;5045257;28;20033;-71
2023/01/22 10:40:55;;;;;;;2.47;1.88;;;2.60;99.90;;;;;;5036885;28;20405;-71
2023/01/22 10:43:33;;;;;;;4.40;2.58;;;2.60;99.90;;;;;;5037788;28;20096;-72
2023/01/22 10:46:12;;;;;;;1.95;1.75;;;2.60;99.90;;;;;;5038539;28;20025;-72
2023/01/22 10:48:37;;;;;;;1.23;1.08;;;2.40;99.90;;;;;;5048761;28;20025;-71
2023/01/22 10:51:21;;;;;;;1.08;0.98;;;2.40;99.90;;;;;;5044967;28;20516;-72
2023/01/22 10:53:48;;;;;;;1.65;1.55;;;2.40;99.90;;;;;;5039232;28;20064;-73
2023/01/22 10:56:29;;;;;;;2.30;1.88;;;2.40;99.90;;;;;;5035004;28;20025;-72
2023/01/22 10:58:56;;;;;;;0.80;0.68;;;2.40;99.90;;;;;;5035435;28;20040;-72
2023/01/22 11:01:31;;;;;;;2.30;1.35;;;2.30;99.90;;;;;;5039749;28;20041;-72
2023/01/22 11:03:56;;;;;;;3.30;0.93;;;2.50;99.90;;;;;;5029128;28;20033;-72
2023/01/22 11:06:46;;;;;;;2.35;1.45;;;2.40;99.90;;;;;;5050511;28;20044;-72
2023/01/22 11:09:38;;;;;;;0.25;0.25;;;2.40;99.90;;;;;;5051183;28;20041;-72
2023/01/22 11:12:07;;;;;;;;;;;2.30;99.90;;;;;;5044433;28;20481;-72
2023/01/22 11:14:35;;;;;;;0.30;0.30;;;2.30;99.90;;;;;;5049814;28;19908;-72
2023/01/22 11:17:21;;;;;;;4.30;3.92;;;2.60;99.90;;;;;;5052016;28;20492;-72
2023/01/22 11:20:16;;;;;;;2.17;1.85;;;2.80;99.90;;;;;;5050163;28;20735;-72
2023/01/22 11:22:47;;;;;;;0.93;0.90;;;2.60;99.90;;;;;;5051426;28;20489;-72
2023/01/22 11:25:13;;;;;;;2.25;1.48;;;2.60;99.90;;;;;;5051714;28;20075;-72
2023/01/22 11:27:47;;;;;;;2.30;2.05;;;2.60;99.90;;;;;;5051687;28;20139;-72
2023/01/22 11:31:08;;;;;;;0.55;0.32;;;2.50;99.90;;;;;;5050422;28;20039;-72
2023/01/22 11:34:11;;;;;;;0.30;0.30;;;2.50;99.90;;;;;;5044920;28;20040;-72
2023/01/22 11:36:54;;;;;;;0.10;0.10;;;2.70;99.90;;;;;;5052665;28;20052;-72
2023/01/22 11:39:58;;;;;;;1.23;1.20;;;2.70;99.90;;;;;;5047583;28;20040;-72
2023/01/22 11:42:33;;;;;;;8.07;4.13;;;2.80;99.90;;;;;;5051650;28;20067;-72
2023/01/22 11:45:14;;;;;;;4.80;2.70;;;2.80;99.90;;;;;;5051488;28;20029;-72
2023/01/22 11:48:10;;;;;;;3.63;2.17;;;2.60;99.90;;;;;;5048156;28;20021;-75
2023/01/22 11:50:48;;;;;;;5.03;2.50;;;2.60;99.90;;;;;;5049808;28;20037;-74
2023/01/22 11:53:42;;;;;;;2.15;1.95;;;2.70;99.90;;;;;;5054116;28;20029;-75
2023/01/22 11:56:26;;;;;;;0.95;0.75;;;2.50;99.90;;;;;;5039730;28;20093;-75
2023/01/22 11:59:03;;;;;;;2.20;1.35;;;2.60;99.90;;;;;;5054884;28;20366;-75
2023/01/22 12:01:50;;;;;;;1.00;0.95;;;2.60;99.90;;;;;;5055400;28;20033;-75
2023/01/22 12:04:34;;;;;;;0.80;0.80;;;2.70;99.90;;;;;;5054347;28;20063;-75
2023/01/22 12:07:12;;;;;;;2.13;0.63;;;2.60;99.90;;;;;;5054970;28;20115;-75
2023/01/22 12:09:53;;;;;;;0.03;0.03;;;2.50;99.90;;;;;;5055284;28;20461;-75
2023/01/22 12:13:05;;;;;;;0.68;0.35;;;2.70;99.90;;;;;;5053920;28;20503;-75
2023/01/22 12:15:43;;;;;;;6.97;2.72;;;2.70;99.90;;;;;;5046051;28;20511;-75
2023/01/22 12:18:50;;;;;;;0.57;0.47;;;2.80;99.90;;;;;;5053954;28;20112;-75
2023/01/22 12:21:28;;;;;;;7.22;4.18;;;2.70;99.90;;;;;;5054864;28;20033;-75
2023/01/22 12:24:04;;;;;;;0.63;0.63;;;2.80;99.90;;;;;;5055101;28;20031;-76
2023/01/22 12:26:38;;;;;;;6.30;2.40;;;2.80;99.90;;;;;;5055142;28;20036;-75
2023/01/22 12:29:22;;;;;;;2.83;1.98;;;2.90;99.90;;;;;;5055127;28;20107;-75
2023/01/22 12:31:57;;;;;;;5.32;4.00;;;2.90;99.90;;;;;;5054847;28;20021;-75
2023/01/22 12:34:30;;;;;;;4.22;2.58;;;2.80;99.90;;;;;;5054910;28;20029;-75
2023/01/22 12:36:58;;;;;;;2.60;1.70;;;2.80;99.90;;;;;;5054610;28;20029;-75
2023/01/22 12:39:35;;;;;;;1.42;0.85;;;2.80;99.90;;;;;;5053712;28;20455;-75
2023/01/22 12:42:12;;;;;;;0.95;0.93;;;3.00;99.90;;;;;;5054562;28;20016;-75
2023/01/22 12:45:23;;;;;;;1.77;1.23;;;2.90;99.90;;;;;;5054332;28;20162;-74
2023/01/22 12:48:04;;;;;;;0.25;0.25;;;3.10;99.90;;;;;;5041686;28;20033;-75
2023/01/22 12:50:30;;;;;;;2.35;1.98;;;3.10;99.90;;;;;;5053907;28;20044;-75
2023/01/22 12:53:00;;;;;;;9.07;4.13;;;3.20;99.90;;;;;;5053366;28;20021;-75
2023/01/22 12:55:39;;;;;;;9.70;6.82;;;3.10;99.90;;;;;;5054422;28;20064;-74
2023/01/22 12:58:20;;;;;;;6.43;2.38;;;3.10;99.90;;;;;;5054352;28;20104;-75
2023/01/22 13:00:57;;;;;;;1.43;1.33;;;3.20;99.90;;;;;;5053153;28;20071;-75
2023/01/22 13:03:27;;;;;;;4.78;1.70;;;3.20;99.90;;;;;;5054101;28;20032;-74
2023/01/22 13:05:54;;;;;;;3.42;2.42;;;3.30;99.90;;;;;;5053006;28;20021;-74
2023/01/22 13:08:36;;;;;;;6.28;2.83;;;3.50;99.90;;;;;;5054263;28;20029;-74
2023/01/22 13:11:07;;;;;;;;;;;3.40;99.90;;;;;;5054743;28;20102;-75
2023/01/22 13:13:50;;;;;;;10.60;2.13;;;3.20;99.90;;;;;;5054270;28;19908;-75
2023/01/22 13:16:33;;;;;;;1.70;0.90;;;3.40;99.90;;;;;;5054094;28;20040;-74
2023/01/22 13:18:59;;;;;;;;;;;3.20;99.90;;;;;;5053971;28;20156;-75
2023/01/22 13:21:32;;;;;;;3.90;2.30;;;3.20;99.90;;;;;;5054119;28;19908;-74
2023/01/22 13:24:04;;;;;;;1.50;1.42;;;3.20;99.90;;;;;;5052918;28;20041;-75